createdAt,value
2022-09-06T00:09:59.176Z,16
2022-09-06T00:19:59.271Z,16
2022-09-06T00:29:59.169Z,16
2022-09-06T00:39:59.357Z,16
2022-09-06T00:49:59.159Z,16
2022-09-06T00:59:59.265Z,16
2022-09-06T01:09:59.158Z,16
2022-09-06T01:19:59.260Z,16
2022-09-06T01:29:59.357Z,16
2022-09-06T01:39:59.299Z,16
2022-09-06T01:49:59.342Z,16
2022-09-06T01:59:59.248Z,16
2022-09-06T02:09:59.350Z,16
2022-09-06T02:19:59.238Z,16
2022-09-06T02:29:59.351Z,16
2022-09-06T02:39:59.309Z,15.5
2022-09-06T02:49:59.342Z,16
2022-09-06T02:59:59.440Z,16
2022-09-06T03:09:59.328Z,15.5
2022-09-06T03:19:59.446Z,15.5
2022-09-06T03:29:59.336Z,15.5
2022-09-06T03:39:59.497Z,16
2022-09-06T03:49:59.341Z,16
2022-09-06T03:59:59.439Z,15.5
2022-09-06T04:09:59.339Z,15.5
2022-09-06T04:19:59.437Z,15.5
2022-09-06T04:29:59.538Z,15.5
2022-09-06T04:39:59.504Z,15.5
2022-09-06T04:49:59.529Z,15.5
2022-09-06T04:59:59.431Z,15.5
2022-09-06T05:09:59.528Z,15.5
2022-09-06T05:19:59.433Z,15.5
2022-09-06T05:29:59.521Z,15.5
2022-09-06T05:39:59.674Z,15.5
2022-09-06T05:49:59.510Z,16
2022-09-06T05:59:59.616Z,16
2022-09-06T06:09:59.514Z,16
2022-09-06T06:19:59.612Z,16
2022-09-06T06:29:59.504Z,16
2022-09-06T06:39:59.627Z,16
2022-09-06T06:49:59.504Z,17
2022-09-06T06:59:59.590Z,17
2022-09-06T07:20:15.250Z,18.5
2022-09-06T07:29:59.702Z,19.5
2022-09-06T07:39:59.657Z,18.5
2022-09-06T07:59:59.600Z,19
2022-09-06T08:09:59.702Z,19
2022-09-06T08:19:59.592Z,19
2022-09-06T08:29:59.698Z,18.5
2022-09-06T08:39:59.811Z,18.5
2022-09-06T08:49:59.693Z,19
2022-09-06T08:59:59.789Z,21
2022-09-06T09:09:59.680Z,21.5
2022-09-06T09:19:59.786Z,21
2022-09-06T09:39:59.842Z,22
2022-09-06T09:50:00.356Z,21.5
2022-09-06T10:00:00.020Z,21.5
2022-09-06T10:09:59.882Z,21.5
2022-09-06T10:19:59.793Z,21.5
2022-09-06T10:29:59.897Z,21.5
2022-09-06T10:39:59.821Z,22
2022-09-06T10:49:59.873Z,23.5
2022-09-06T10:59:59.779Z,21.5
2022-09-06T11:09:59.894Z,22
2022-09-06T11:19:59.805Z,22
2022-09-06T11:29:59.889Z,21.5
2022-09-06T11:49:59.888Z,21.5
2022-09-06T12:00:00.180Z,22.5
2022-09-06T12:09:59.879Z,22
2022-09-06T12:19:59.978Z,24
2022-09-06T12:29:59.878Z,22
2022-09-06T12:40:00.035Z,22
2022-09-06T12:49:59.907Z,22
2022-09-06T12:59:59.998Z,22
2022-09-06T13:09:59.890Z,22
2022-09-06T13:19:59.991Z,22
2022-09-06T13:30:00.150Z,22
2022-09-06T13:40:00.097Z,22.5
2022-09-06T13:50:00.248Z,22.5
2022-09-06T14:00:00.042Z,24
2022-09-06T14:10:00.142Z,23
2022-09-06T14:20:00.095Z,22.5
2022-09-06T14:30:00.272Z,21.5
2022-09-06T14:40:00.113Z,22
2022-09-06T14:50:00.872Z,22
2022-09-06T15:00:00.196Z,21
2022-09-06T15:10:00.077Z,21.5
2022-09-06T15:20:00.165Z,22.5
2022-09-06T15:30:00.069Z,21.5
2022-09-06T15:40:00.308Z,21.5
2022-09-06T15:50:00.066Z,20.5
2022-09-06T16:00:00.792Z,20.5
2022-09-06T16:10:00.180Z,21
2022-09-06T16:20:00.183Z,21
2022-09-06T16:30:00.272Z,21
2022-09-06T16:40:00.312Z,21
2022-09-06T16:50:00.306Z,21
2022-09-06T17:00:00.551Z,21
2022-09-06T17:10:00.568Z,21
2022-09-06T17:20:00.452Z,21
2022-09-06T17:30:01.189Z,21
2022-09-06T17:40:00.834Z,21
2022-09-06T17:50:01.171Z,21
2022-09-06T18:00:01.157Z,20.5
2022-09-06T18:10:00.591Z,20.5
2022-09-06T18:20:01.078Z,20.5
2022-09-06T18:30:01.220Z,20.5
2022-09-06T18:40:00.929Z,20
2022-09-06T18:50:01.039Z,19.5
2022-09-06T19:00:00.332Z,19.5
2022-09-06T19:10:00.433Z,19.5
2022-09-06T19:20:00.330Z,19.5
2022-09-06T19:30:00.427Z,19.5
2022-09-06T19:40:00.398Z,19.5
2022-09-06T19:50:00.439Z,19
2022-09-06T20:00:00.506Z,18.5
2022-09-06T20:10:00.419Z,18.5
2022-09-06T20:20:00.322Z,18.5
2022-09-06T20:30:00.429Z,18.5
2022-09-06T20:40:00.817Z,18.5
2022-09-06T20:50:00.578Z,17.5
2022-09-06T21:00:00.507Z,16.5
2022-09-06T21:10:00.417Z,16.5
2022-09-06T21:20:00.511Z,16.5
2022-09-06T21:30:00.398Z,16.5
2022-09-06T21:40:00.556Z,17
2022-09-06T21:50:00.431Z,17
2022-09-06T22:00:00.513Z,17
2022-09-06T22:10:00.604Z,17
2022-09-06T22:20:00.496Z,17
2022-09-06T22:30:00.834Z,17.5
2022-09-06T22:40:00.655Z,17.5
2022-09-06T22:50:00.615Z,17.5
2022-09-06T23:00:01.156Z,18
2022-09-06T23:10:01.010Z,18
2022-09-06T23:20:00.697Z,17.5
2022-09-06T23:30:00.579Z,18
2022-09-06T23:40:00.969Z,18
2022-09-06T23:50:00.859Z,18
